createdAt,value
2018-10-18T00:00:10.117Z,38.80
2018-10-18T00:02:37.937Z,37.20
2018-10-18T00:05:06.592Z,37.73
2018-10-18T00:07:34.313Z,35.67
2018-10-18T00:10:02.050Z,37.20
2018-10-18T00:12:29.804Z,36.10
2018-10-18T00:14:57.465Z,39.50
2018-10-18T00:17:58.350Z,35.43
2018-10-18T00:20:26.062Z,39.60
2018-10-18T00:22:53.727Z,36.90
2018-10-18T00:25:21.374Z,35.70
2018-10-18T00:27:49.032Z,36.30
2018-10-18T00:30:16.807Z,37.53
2018-10-18T00:32:44.751Z,38.53
2018-10-18T00:35:12.684Z,39.27
2018-10-18T00:37:40.461Z,37.37
2018-10-18T00:40:09.676Z,38.87
2018-10-18T00:42:37.422Z,36.53
2018-10-18T00:45:06.264Z,36.67
2018-10-18T00:47:33.938Z,37.27
2018-10-18T00:50:01.645Z,36.33
2018-10-18T00:52:29.321Z,36.47
2018-10-18T00:54:56.954Z,37.43
2018-10-18T00:57:24.641Z,38.73
2018-10-18T00:59:52.317Z,35.23
2018-10-18T01:02:20.120Z,36.47
2018-10-18T01:04:47.717Z,36.57
2018-10-18T01:07:15.413Z,35.67
2018-10-18T01:09:43.059Z,38.77
2018-10-18T01:12:10.801Z,37.37
2018-10-18T01:14:38.425Z,36.43
2018-10-18T01:17:06.423Z,38.10
2018-10-18T01:19:36.316Z,38.40
2018-10-18T01:22:05.300Z,39.23
2018-10-18T01:24:33.388Z,39.93
2018-10-18T01:27:01.177Z,38.60
2018-10-18T01:29:28.836Z,38.00
2018-10-18T01:31:56.956Z,38.23
2018-10-18T01:34:24.623Z,37.97
2018-10-18T01:36:52.230Z,36.07
2018-10-18T01:39:19.893Z,37.60
2018-10-18T01:41:47.561Z,38.63
2018-10-18T01:44:15.338Z,36.87
2018-10-18T01:46:42.945Z,35.90
2018-10-18T01:49:10.625Z,34.03
2018-10-18T01:51:38.256Z,36.93
2018-10-18T01:54:06.869Z,35.47
2018-10-18T01:56:34.480Z,36.40
2018-10-18T01:59:02.150Z,37.80
2018-10-18T02:01:30.381Z,37.87
2018-10-18T02:03:58.204Z,35.67
2018-10-18T02:06:27.270Z,33.90
2018-10-18T02:08:55.074Z,32.87
2018-10-18T02:11:22.724Z,32.23
2018-10-18T02:13:50.392Z,36.17
2018-10-18T02:16:18.059Z,38.07
2018-10-18T02:18:45.753Z,38.00
2018-10-18T02:21:13.446Z,35.17
2018-10-18T02:23:41.112Z,35.70
2018-10-18T02:26:08.771Z,34.43
2018-10-18T02:28:36.472Z,33.07
2018-10-18T02:31:04.357Z,35.30
2018-10-18T02:33:31.947Z,32.53
2018-10-18T02:35:59.675Z,33.37
2018-10-18T02:38:27.295Z,32.23
2018-10-18T02:40:54.926Z,32.13
2018-10-18T02:43:22.665Z,33.53
2018-10-18T02:45:50.300Z,34.83
2018-10-18T02:48:20.732Z,31.40
2018-10-18T02:50:48.477Z,32.47
2018-10-18T02:53:16.135Z,29.97
2018-10-18T02:55:43.862Z,31.53
2018-10-18T02:58:11.538Z,30.27
2018-10-18T03:00:39.615Z,32.20
2018-10-18T03:03:07.306Z,33.67
2018-10-18T03:05:35.015Z,32.47
2018-10-18T03:08:02.912Z,32.23
2018-10-18T03:10:30.574Z,32.07
2018-10-18T03:12:58.203Z,31.30
2018-10-18T03:15:25.916Z,30.47
2018-10-18T03:17:53.584Z,32.00
2018-10-18T03:20:21.317Z,33.30
2018-10-18T03:22:48.981Z,29.63
2018-10-18T03:25:16.660Z,32.47
2018-10-18T03:27:44.378Z,31.03
2018-10-18T03:30:12.286Z,30.57
2018-10-18T03:32:39.945Z,30.90
2018-10-18T03:35:08.593Z,29.27
2018-10-18T03:37:36.285Z,30.00
2018-10-18T03:40:04.020Z,30.97
2018-10-18T03:42:31.738Z,28.73
2018-10-18T03:44:59.780Z,28.13
2018-10-18T03:47:27.482Z,30.37
2018-10-18T03:49:55.072Z,27.10
2018-10-18T03:52:22.941Z,29.17
2018-10-18T03:54:50.631Z,29.73
2018-10-18T03:57:18.294Z,28.73
2018-10-18T03:59:45.984Z,29.00
2018-10-18T04:02:13.605Z,28.30
2018-10-18T04:04:41.246Z,29.20
2018-10-18T04:07:09.388Z,29.13
2018-10-18T04:09:37.090Z,29.33
2018-10-18T04:12:08.176Z,29.20
2018-10-18T04:14:35.834Z,29.50
2018-10-18T04:17:03.575Z,27.10
2018-10-18T04:19:31.260Z,29.07
2018-10-18T04:21:58.921Z,26.57
2018-10-18T04:24:26.594Z,28.00
2018-10-18T04:26:54.274Z,28.23
2018-10-18T04:29:21.943Z,26.83
2018-10-18T04:31:49.499Z,26.70
2018-10-18T04:34:17.167Z,25.87
2018-10-18T04:36:44.706Z,27.33
2018-10-18T04:39:13.107Z,26.93
2018-10-18T04:41:40.717Z,26.30
2018-10-18T04:44:08.427Z,29.47
2018-10-18T04:46:36.108Z,26.37
2018-10-18T04:49:03.844Z,26.30
2018-10-18T04:51:31.512Z,28.17
2018-10-18T04:53:59.952Z,26.80
2018-10-18T04:56:27.689Z,26.97
2018-10-18T04:58:55.628Z,27.50
2018-10-18T05:01:23.328Z,26.80
2018-10-18T05:03:51.028Z,28.20
2018-10-18T05:06:18.786Z,27.80
2018-10-18T05:08:46.515Z,28.23
2018-10-18T05:11:14.309Z,29.03
2018-10-18T05:13:41.996Z,28.37
2018-10-18T05:16:09.630Z,27.33
2018-10-18T05:18:37.326Z,26.43
2018-10-18T05:21:05.329Z,25.27
2018-10-18T05:23:33.002Z,29.07
2018-10-18T05:26:00.697Z,26.17
2018-10-18T05:28:28.430Z,25.03
2018-10-18T05:30:56.248Z,25.77
2018-10-18T05:33:23.927Z,26.17
2018-10-18T05:35:53.674Z,25.97
2018-10-18T05:38:21.421Z,25.33
2018-10-18T05:40:49.161Z,24.50
2018-10-18T05:43:16.926Z,24.50
2018-10-18T05:45:44.561Z,25.10
2018-10-18T05:48:12.216Z,25.23
2018-10-18T05:50:39.929Z,25.27
2018-10-18T05:53:07.772Z,23.83
2018-10-18T05:55:35.460Z,23.33
2018-10-18T05:58:03.297Z,22.97
2018-10-18T06:00:31.015Z,25.60
2018-10-18T06:02:58.660Z,23.67
2018-10-18T06:05:26.332Z,24.17
2018-10-18T06:07:53.977Z,25.27
2018-10-18T06:10:33.194Z,24.87
2018-10-18T06:13:00.789Z,24.37
2018-10-18T06:15:28.505Z,24.23
2018-10-18T06:17:59.231Z,25.03
2018-10-18T06:20:26.967Z,25.90
2018-10-18T06:22:54.664Z,26.50
2018-10-18T06:25:22.331Z,24.70
2018-10-18T06:27:50.091Z,23.67
2018-10-18T06:30:17.811Z,24.93
2018-10-18T06:32:45.504Z,23.27
2018-10-18T06:35:14.507Z,23.17
2018-10-18T06:37:42.181Z,25.97
2018-10-18T06:40:18.001Z,22.40
2018-10-18T06:42:45.682Z,26.67
2018-10-18T06:45:14.800Z,26.57
2018-10-18T06:47:43.155Z,25.77
2018-10-18T06:50:13.101Z,26.77
2018-10-18T06:52:40.830Z,24.53
2018-10-18T06:55:08.595Z,25.00
2018-10-18T06:57:37.289Z,21.97
2018-10-18T07:00:07.638Z,22.67
2018-10-18T07:02:35.323Z,24.63
2018-10-18T07:05:03.497Z,24.77
2018-10-18T07:07:31.777Z,20.00
2018-10-18T07:09:59.482Z,23.10
2018-10-18T07:12:27.151Z,21.40
2018-10-18T07:14:54.833Z,22.60
2018-10-18T07:17:23.484Z,22.27
2018-10-18T07:19:51.206Z,22.00
2018-10-18T07:22:18.913Z,21.13
2018-10-18T07:24:46.597Z,20.20
2018-10-18T07:27:14.289Z,18.90
2018-10-18T07:29:42.090Z,18.97
2018-10-18T07:32:09.864Z,19.77
2018-10-18T07:34:37.569Z,19.90
2018-10-18T07:37:05.547Z,19.17
2018-10-18T07:39:33.218Z,17.73
2018-10-18T07:42:03.050Z,19.33
2018-10-18T07:44:30.853Z,18.67
2018-10-18T07:46:58.539Z,17.63
2018-10-18T07:49:26.066Z,18.50
2018-10-18T07:51:53.735Z,17.47
2018-10-18T07:54:21.376Z,16.57
2018-10-18T07:56:49.055Z,17.10
2018-10-18T07:59:16.749Z,17.63
2018-10-18T08:01:44.426Z,17.50
2018-10-18T08:04:12.166Z,17.90
2018-10-18T08:06:39.878Z,16.17
2018-10-18T08:09:09.597Z,16.73
2018-10-18T08:11:37.395Z,15.43
2018-10-18T08:14:05.184Z,16.90
2018-10-18T08:16:32.833Z,15.50
2018-10-18T08:19:00.520Z,15.40
2018-10-18T08:21:28.178Z,15.53
2018-10-18T08:23:58.500Z,14.17
2018-10-18T08:26:26.279Z,14.27
2018-10-18T08:28:53.983Z,13.97
2018-10-18T08:31:21.812Z,13.73
2018-10-18T08:33:49.413Z,13.13
2018-10-18T08:36:17.116Z,13.67
2018-10-18T08:38:44.761Z,11.93
2018-10-18T08:41:12.449Z,11.90
2018-10-18T08:43:40.170Z,11.77
2018-10-18T08:46:07.841Z,11.27
2018-10-18T08:48:35.494Z,11.87
2018-10-18T08:51:03.232Z,11.60
2018-10-18T08:53:30.904Z,11.10
2018-10-18T08:55:58.893Z,10.60
2018-10-18T08:58:26.600Z,10.80
2018-10-18T09:00:54.461Z,10.57
2018-10-18T09:03:22.215Z,9.57
2018-10-18T09:05:49.905Z,9.87
2018-10-18T09:08:17.749Z,10.37
2018-10-18T09:10:45.463Z,8.57
2018-10-18T09:13:13.214Z,9.27
2018-10-18T09:15:40.898Z,8.43
2018-10-18T09:18:08.628Z,7.95
2018-10-18T09:20:36.324Z,6.45
2018-10-18T09:23:04.260Z,7.10
2018-10-18T09:25:31.921Z,7.30
2018-10-18T09:28:01.401Z,6.65
2018-10-18T09:30:29.199Z,7.40
2018-10-18T09:32:56.770Z,7.03
2018-10-18T09:35:24.452Z,7.92
2018-10-18T09:37:52.148Z,6.78
2018-10-18T09:40:19.808Z,7.50
2018-10-18T09:42:47.489Z,7.45
2018-10-18T09:45:15.185Z,7.33
2018-10-18T09:47:42.866Z,7.25
2018-10-18T09:50:11.740Z,6.47
2018-10-18T09:52:39.476Z,7.03
2018-10-18T09:55:08.877Z,6.95
2018-10-18T09:57:36.592Z,6.85
2018-10-18T10:00:04.859Z,6.25
2018-10-18T10:03:38.946Z,6.22
2018-10-18T10:06:06.659Z,6.25
2018-10-18T10:08:34.340Z,6.12
2018-10-18T10:11:01.987Z,6.08
2018-10-18T10:13:29.826Z,6.05
2018-10-18T10:15:57.466Z,5.60
2018-10-18T10:18:25.199Z,6.47
2018-10-18T10:20:54.007Z,6.05
2018-10-18T10:23:21.714Z,5.25
2018-10-18T10:25:49.378Z,5.25
2018-10-18T10:28:17.044Z,4.92
2018-10-18T10:30:46.409Z,4.95
2018-10-18T10:33:14.151Z,6.20
2018-10-18T10:35:41.837Z,6.37
2018-10-18T10:38:09.494Z,7.03
2018-10-18T10:40:37.121Z,6.42
2018-10-18T10:43:05.222Z,6.50
2018-10-18T10:45:32.877Z,6.75
2018-10-18T10:48:00.581Z,5.97
2018-10-18T10:50:28.170Z,6.30
2018-10-18T10:52:55.877Z,7.10
2018-10-18T10:55:23.509Z,7.58
2018-10-18T10:57:51.184Z,6.87
2018-10-18T11:00:29.133Z,6.30
2018-10-18T11:02:56.822Z,6.33
2018-10-18T11:05:24.493Z,5.87
2018-10-18T11:07:52.224Z,5.20
2018-10-18T11:10:19.868Z,5.10
2018-10-18T11:12:49.694Z,5.28
2018-10-18T11:15:17.608Z,4.95
2018-10-18T11:17:45.314Z,4.90
2018-10-18T11:20:13.012Z,5.33
2018-10-18T11:22:40.702Z,6.03
2018-10-18T11:25:08.484Z,5.12
2018-10-18T11:27:36.250Z,5.67
2018-10-18T11:30:04.133Z,6.37
2018-10-18T11:32:31.792Z,6.33
2018-10-18T11:34:59.484Z,5.78
2018-10-18T11:37:27.258Z,5.25
2018-10-18T11:39:54.965Z,5.28
2018-10-18T11:42:22.670Z,4.75
2018-10-18T11:44:50.397Z,5.28
2018-10-18T11:47:18.361Z,5.17
2018-10-18T11:49:46.064Z,6.05
2018-10-18T11:52:13.935Z,6.20
2018-10-18T11:54:42.909Z,6.90
2018-10-18T11:57:10.569Z,6.28
2018-10-18T11:59:38.278Z,6.87
2018-10-18T12:02:06.099Z,6.05
2018-10-18T12:04:33.759Z,5.70
2018-10-18T12:07:01.452Z,6.03
2018-10-18T12:09:29.129Z,5.80
2018-10-18T12:11:56.785Z,5.95
2018-10-18T12:14:24.476Z,6.80
2018-10-18T12:16:52.134Z,5.70
2018-10-18T12:19:20.245Z,6.45
2018-10-18T12:21:49.310Z,5.95
2018-10-18T12:24:17.380Z,6.78
2018-10-18T12:26:45.778Z,6.70
2018-10-18T12:29:13.693Z,8.43
2018-10-18T12:31:41.449Z,8.58
2018-10-18T12:34:09.195Z,8.95
2018-10-18T12:36:36.896Z,8.13
2018-10-18T12:39:07.393Z,7.65
2018-10-18T12:41:35.508Z,7.83
2018-10-18T12:44:03.204Z,8.68
2018-10-18T12:46:30.914Z,7.70
2018-10-18T12:48:58.602Z,7.92
2018-10-18T12:51:26.320Z,8.70
2018-10-18T12:53:54.088Z,9.25
2018-10-18T12:56:21.816Z,8.70
2018-10-18T12:58:49.517Z,9.60
2018-10-18T13:01:17.530Z,9.60
2018-10-18T13:03:45.343Z,8.53
2018-10-18T13:06:13.135Z,8.70
2018-10-18T13:08:40.789Z,8.43
2018-10-18T13:11:08.569Z,6.65
2018-10-18T13:13:36.289Z,7.00
2018-10-18T13:16:04.252Z,6.47
2018-10-18T13:18:31.965Z,6.20
2018-10-18T13:20:59.712Z,5.33
2018-10-18T13:23:27.573Z,4.35
2018-10-18T13:25:55.316Z,3.83
2018-10-18T13:28:23.272Z,3.70
2018-10-18T13:30:51.004Z,4.00
2018-10-18T13:33:18.766Z,4.40
2018-10-18T13:38:22.788Z,4.08
2018-10-18T13:40:53.282Z,4.20
2018-10-18T13:43:21.045Z,4.00
2018-10-18T13:45:48.841Z,4.57
2018-10-18T13:48:16.667Z,4.63
2018-10-18T13:50:44.296Z,4.77
2018-10-18T13:53:11.970Z,4.60
2018-10-18T13:55:39.676Z,4.70
2018-10-18T13:58:07.355Z,4.07
2018-10-18T14:00:35.053Z,3.97
2018-10-18T14:03:02.893Z,4.33
2018-10-18T14:05:30.585Z,3.98
2018-10-18T14:08:00.962Z,3.15
2018-10-18T14:10:28.712Z,2.60
2018-10-18T14:12:56.372Z,2.85
2018-10-18T14:15:24.057Z,3.00
2018-10-18T14:17:51.889Z,2.77
2018-10-18T14:20:19.627Z,3.55
2018-10-18T14:22:47.097Z,3.87
2018-10-18T14:25:14.786Z,3.87
2018-10-18T14:27:42.443Z,3.98
2018-10-18T14:30:11.062Z,4.33
2018-10-18T14:32:38.688Z,4.50
2018-10-18T14:35:07.271Z,4.90
2018-10-18T14:37:34.940Z,5.40
2018-10-18T14:40:02.652Z,5.22
2018-10-18T14:42:31.860Z,5.50
2018-10-18T14:44:59.672Z,5.20
2018-10-18T14:47:27.369Z,5.65
2018-10-18T14:49:55.063Z,5.43
2018-10-18T14:52:22.842Z,5.25
2018-10-18T14:54:50.427Z,5.78
2018-10-18T14:57:18.108Z,4.70
2018-10-18T14:59:45.800Z,6.03
2018-10-18T15:02:13.516Z,5.80
2018-10-18T15:04:41.292Z,5.67
2018-10-18T15:07:08.874Z,6.00
2018-10-18T15:09:37.093Z,5.93
2018-10-18T15:12:05.090Z,5.33
2018-10-18T15:14:32.822Z,6.00
2018-10-18T15:17:00.852Z,4.90
2018-10-18T15:19:28.580Z,5.53
2018-10-18T15:21:56.326Z,5.63
2018-10-18T15:24:24.181Z,5.03
2018-10-18T15:26:53.765Z,5.23
2018-10-18T15:29:21.664Z,5.43
2018-10-18T15:31:49.356Z,5.63
2018-10-18T15:34:16.919Z,5.10
2018-10-18T15:36:44.617Z,5.23
2018-10-18T15:39:12.777Z,6.10
2018-10-18T15:41:41.052Z,5.23
2018-10-18T15:44:09.497Z,5.63
2018-10-18T15:46:37.517Z,5.93
2018-10-18T15:49:05.587Z,6.40
2018-10-18T15:51:33.386Z,6.33
2018-10-18T15:54:01.013Z,6.70
2018-10-18T15:56:28.674Z,5.33
2018-10-18T15:58:56.400Z,5.33
2018-10-18T16:01:24.101Z,5.27
2018-10-18T16:03:51.769Z,5.63
2018-10-18T16:06:19.555Z,5.67
2018-10-18T16:08:47.548Z,5.70
2018-10-18T16:11:15.325Z,6.00
2018-10-18T16:13:42.941Z,6.20
2018-10-18T16:16:10.723Z,6.13
2018-10-18T16:18:38.415Z,6.43
2018-10-18T16:21:06.217Z,6.97
2018-10-18T16:23:34.282Z,6.47
2018-10-18T16:26:02.047Z,7.27
2018-10-18T16:28:29.666Z,7.30
2018-10-18T16:30:57.225Z,7.67
2018-10-18T16:33:24.943Z,8.13
2018-10-18T16:35:52.603Z,8.07
2018-10-18T16:38:20.401Z,8.90
2018-10-18T16:40:48.028Z,9.73
2018-10-18T16:43:15.793Z,11.90
2018-10-18T16:45:43.978Z,13.13
2018-10-18T16:48:11.908Z,12.03
2018-10-18T16:50:39.882Z,11.43
2018-10-18T16:53:07.940Z,11.43
2018-10-18T16:55:35.650Z,10.23
2018-10-18T16:58:04.481Z,10.20
2018-10-18T17:00:32.228Z,11.23
2018-10-18T17:02:59.916Z,11.77
2018-10-18T17:05:27.637Z,13.43
2018-10-18T17:07:55.414Z,14.57
2018-10-18T17:10:23.200Z,15.47
2018-10-18T17:12:50.999Z,15.20
2018-10-18T17:15:18.787Z,15.97
2018-10-18T17:17:46.715Z,15.70
2018-10-18T17:20:14.603Z,16.73
2018-10-18T17:22:42.268Z,15.90
2018-10-18T17:25:10.412Z,15.83
2018-10-18T17:27:38.357Z,15.43
2018-10-18T17:30:06.201Z,15.23
2018-10-18T17:32:34.260Z,14.77
2018-10-18T17:35:02.071Z,16.23
2018-10-18T17:37:29.899Z,16.37
2018-10-18T17:39:57.736Z,15.37
2018-10-18T17:42:25.473Z,16.37
2018-10-18T17:44:53.264Z,16.47
2018-10-18T17:47:21.186Z,16.03
2018-10-18T17:49:49.067Z,16.97
2018-10-18T17:52:16.879Z,17.70
2018-10-18T17:54:44.633Z,15.63
2018-10-18T17:57:12.385Z,13.20
2018-10-18T17:59:40.182Z,14.00
2018-10-18T18:02:08.210Z,13.57
2018-10-18T18:04:36.681Z,13.30
2018-10-18T18:07:05.273Z,12.30
2018-10-18T18:09:33.245Z,11.83
2018-10-18T18:12:00.973Z,11.50
2018-10-18T18:14:28.901Z,9.53
2018-10-18T18:16:59.152Z,11.23
2018-10-18T18:19:26.892Z,10.53
2018-10-18T18:21:54.829Z,11.07
2018-10-18T18:24:22.584Z,10.13
2018-10-18T18:26:50.342Z,12.40
2018-10-18T18:29:18.094Z,11.47
2018-10-18T18:31:46.893Z,10.77
2018-10-18T18:34:15.443Z,9.73
2018-10-18T18:36:43.195Z,7.63
2018-10-18T18:39:12.361Z,5.73
2018-10-18T18:41:40.459Z,4.97
2018-10-18T18:44:08.237Z,4.30
2018-10-18T18:46:36.052Z,4.43
2018-10-18T18:49:04.180Z,4.20
2018-10-18T18:51:31.938Z,4.07
2018-10-18T18:53:59.692Z,3.90
2018-10-18T18:56:28.369Z,3.97
2018-10-18T18:58:56.107Z,4.17
2018-10-18T19:01:23.824Z,3.70
2018-10-18T19:03:52.038Z,4.40
2018-10-18T19:06:20.054Z,4.10
2018-10-18T19:08:47.706Z,4.60
2018-10-18T19:11:15.505Z,4.40
2018-10-18T19:13:43.291Z,4.17
2018-10-18T19:16:11.110Z,5.03
2018-10-18T19:18:39.081Z,5.07
2018-10-18T19:21:08.707Z,5.30
2018-10-18T19:23:36.641Z,5.60
2018-10-18T19:26:04.738Z,5.60
2018-10-18T19:28:32.654Z,6.87
2018-10-18T19:31:00.378Z,6.67
2018-10-18T19:33:28.119Z,7.67
2018-10-18T19:35:55.838Z,7.70
2018-10-18T19:38:23.592Z,8.00
2018-10-18T19:40:51.290Z,10.13
2018-10-18T19:43:19.095Z,10.40
2018-10-18T19:45:46.936Z,10.77
2018-10-18T19:48:14.582Z,9.57
2018-10-18T19:50:42.302Z,9.83
2018-10-18T19:53:10.190Z,10.03
2018-10-18T19:55:41.225Z,10.23
2018-10-18T19:58:09.097Z,11.90
2018-10-18T20:00:36.712Z,11.10
2018-10-18T20:03:04.757Z,10.33
2018-10-18T20:05:32.415Z,10.60
2018-10-18T20:08:00.123Z,12.20
2018-10-18T20:10:27.813Z,12.90
2018-10-18T20:12:55.630Z,14.43
2018-10-18T20:15:23.314Z,12.97
2018-10-18T20:17:51.088Z,12.83
2018-10-18T20:20:18.850Z,13.77
2018-10-18T20:22:46.713Z,12.77
2018-10-18T20:25:14.514Z,11.57
2018-10-18T20:27:42.287Z,9.30
2018-10-18T20:30:12.313Z,8.77
2018-10-18T20:32:40.055Z,9.50
2018-10-18T20:35:09.323Z,8.90
2018-10-18T20:37:37.682Z,9.03
2018-10-18T20:40:07.698Z,8.40
2018-10-18T20:42:35.408Z,8.10
2018-10-18T20:45:03.214Z,7.97
2018-10-18T20:47:31.027Z,8.13
2018-10-18T20:49:58.582Z,7.07
2018-10-18T20:52:26.300Z,7.73
2018-10-18T20:54:53.946Z,7.17
2018-10-18T20:57:21.601Z,8.20
2018-10-18T20:59:49.301Z,7.87
2018-10-18T21:02:16.918Z,8.87
2018-10-18T21:04:44.611Z,8.37
2018-10-18T21:07:12.566Z,8.17
2018-10-18T21:09:40.188Z,8.43
2018-10-18T21:12:07.934Z,8.93
2018-10-18T21:14:35.543Z,8.60
2018-10-18T21:17:03.347Z,9.13
2018-10-18T21:19:30.945Z,8.77
2018-10-18T21:21:58.677Z,7.93
2018-10-18T21:24:30.263Z,9.43
2018-10-18T21:26:57.977Z,8.97
2018-10-18T21:29:26.248Z,8.30
2018-10-18T21:31:53.919Z,9.30
2018-10-18T21:34:21.687Z,8.83
2018-10-18T21:36:49.361Z,8.33
2018-10-18T21:39:29.521Z,8.57
2018-10-18T21:41:57.219Z,8.57
2018-10-18T21:44:26.653Z,8.07
2018-10-18T21:46:54.329Z,9.10
2018-10-18T21:49:22.008Z,8.37
2018-10-18T21:51:49.697Z,9.97
2018-10-18T21:54:17.328Z,8.83
2018-10-18T21:56:45.068Z,8.80
2018-10-18T21:59:12.815Z,9.23
2018-10-18T22:01:40.476Z,9.77
2018-10-18T22:04:08.221Z,9.70
2018-10-18T22:06:35.903Z,9.30
2018-10-18T22:09:04.618Z,9.53
2018-10-18T22:11:32.304Z,9.37
2018-10-18T22:14:01.147Z,8.90
2018-10-18T22:16:28.850Z,8.80
2018-10-18T22:18:56.503Z,9.77
2018-10-18T22:21:24.166Z,9.00
2018-10-18T22:23:51.865Z,10.50
2018-10-18T22:26:19.613Z,10.43
2018-10-18T22:28:47.299Z,9.67
2018-10-18T22:31:15.005Z,9.37
2018-10-18T22:33:42.659Z,8.83
2018-10-18T22:36:10.336Z,9.47
2018-10-18T22:38:37.981Z,9.63
2018-10-18T22:41:06.259Z,9.63
2018-10-18T22:43:33.984Z,9.27
2018-10-18T22:46:01.692Z,9.77
2018-10-18T22:48:30.626Z,9.17
2018-10-18T22:50:58.427Z,10.20
2018-10-18T22:53:26.242Z,9.87
2018-10-18T22:55:55.503Z,9.60
2018-10-18T22:58:23.237Z,9.67
2018-10-18T23:00:50.912Z,9.63
2018-10-18T23:03:19.935Z,9.77
2018-10-18T23:05:48.278Z,11.10
2018-10-18T23:08:15.964Z,10.53
2018-10-18T23:10:44.021Z,9.93
2018-10-18T23:13:11.703Z,10.23
2018-10-18T23:15:39.387Z,10.70
2018-10-18T23:18:08.385Z,10.50
2018-10-18T23:20:36.558Z,10.67
2018-10-18T23:23:04.602Z,10.87
2018-10-18T23:25:32.263Z,10.30
2018-10-18T23:27:59.919Z,10.53
2018-10-18T23:30:27.573Z,10.83
2018-10-18T23:32:55.400Z,10.80
2018-10-18T23:35:23.134Z,10.83
2018-10-18T23:37:53.124Z,11.17
2018-10-18T23:40:20.861Z,10.40
2018-10-18T23:42:48.555Z,10.50
2018-10-18T23:45:16.367Z,10.60
2018-10-18T23:47:44.010Z,10.83
2018-10-18T23:50:12.367Z,9.90
2018-10-18T23:52:40.047Z,10.20
2018-10-18T23:55:07.815Z,10.50
2018-10-18T23:57:35.506Z,10.80
